<?xml version="1.0" encoding="UTF-8" standalone="no" ?>
<gpx xmlns="http://www.topografix.com/GPX/1/1" xmlns:xsi="http://www.w3.org/2001/XMLSchema-instance" xsi:schemaLocation="http://www.topografix.com/GPX/1/1 http://www.topografix.com/GPX/1/1/gpx.xsd" version="1.1" creator="VisuGPX - https://www.visugpx.com">
  <metadata>
    <name>Venascle - Crêtes du Montdenier boucle HW</name>
    <desc><![CDATA[Venascle - Crêtes du Montdenier boucle HW.
Chateauneuf, cole de l'Ane. Copiede VTTour.fr
]]></desc>
  </metadata>
  <trk>
    <name><![CDATA[Venascle - Crêtes du Montdenier boucle HW_1]]></name>
    <trkseg>
      <trkpt lat="43.84907" lon="6.24732">
        <ele>977.5</ele>
        <time>2016-09-18T07:14:04Z</time>
      </trkpt>
      <trkpt lat="43.84907" lon="6.24747">
        <ele>977.5</ele>
        <time>2016-09-18T07:15:42Z</time>
      </trkpt>
      <trkpt lat="43.84844" lon="6.24823">
        <ele>978</ele>
        <time>2016-09-18T07:16:16Z</time>
      </trkpt>
      <trkpt lat="43.84834" lon="6.24867">
        <ele>979.2</ele>
        <time>2016-09-18T07:16:31Z</time>
      </trkpt>
      <trkpt lat="43.8486" lon="6.24911">
        <ele>982.3</ele>
        <time>2016-09-18T07:16:50Z</time>
      </trkpt>
      <trkpt lat="43.85092" lon="6.25023">
        <ele>1010.3</ele>
        <time>2016-09-18T07:19:06Z</time>
      </trkpt>
      <trkpt lat="43.85137" lon="6.25069">
        <ele>1016.4</ele>
        <time>2016-09-18T07:19:37Z</time>
      </trkpt>
      <trkpt lat="43.85151" lon="6.25101">
        <ele>1019.6</ele>
        <time>2016-09-18T07:19:52Z</time>
      </trkpt>
      <trkpt lat="43.85187" lon="6.25158">
        <ele>1028</ele>
        <time>2016-09-18T07:21:35Z</time>
      </trkpt>
      <trkpt lat="43.85242" lon="6.2537">
        <ele>1042.6</ele>
        <time>2016-09-18T07:23:36Z</time>
      </trkpt>
      <trkpt lat="43.85322" lon="6.25451">
        <ele>1054.5</ele>
        <time>2016-09-18T07:24:29Z</time>
      </trkpt>
      <trkpt lat="43.85351" lon="6.25515">
        <ele>1060.9</ele>
        <time>2016-09-18T07:24:58Z</time>
      </trkpt>
      <trkpt lat="43.85362" lon="6.2555">
        <ele>1064</ele>
        <time>2016-09-18T07:25:12Z</time>
      </trkpt>
      <trkpt lat="43.85381" lon="6.25581">
        <ele>1067.1</ele>
        <time>2016-09-18T07:25:27Z</time>
      </trkpt>
      <trkpt lat="43.85489" lon="6.25624">
        <ele>1071.5</ele>
        <time>2016-09-18T07:26:15Z</time>
      </trkpt>
      <trkpt lat="43.85524" lon="6.25655">
        <ele>1072.8</ele>
        <time>2016-09-18T07:26:32Z</time>
      </trkpt>
      <trkpt lat="43.85561" lon="6.25644">
        <ele>1073.7</ele>
        <time>2016-09-18T07:26:47Z</time>
      </trkpt>
      <trkpt lat="43.85618" lon="6.25608">
        <ele>1074.8</ele>
        <time>2016-09-18T07:27:11Z</time>
      </trkpt>
      <trkpt lat="43.85712" lon="6.25589">
        <ele>1079.4</ele>
        <time>2016-09-18T07:27:49Z</time>
      </trkpt>
      <trkpt lat="43.85763" lon="6.25632">
        <ele>1085.5</ele>
        <time>2016-09-18T07:28:14Z</time>
      </trkpt>
      <trkpt lat="43.85872" lon="6.25645">
        <ele>1097.9</ele>
        <time>2016-09-18T07:29:04Z</time>
      </trkpt>
      <trkpt lat="43.859" lon="6.25662">
        <ele>1100.5</ele>
        <time>2016-09-18T07:29:17Z</time>
      </trkpt>
      <trkpt lat="43.85912" lon="6.25693">
        <ele>1103.6</ele>
        <time>2016-09-18T07:29:28Z</time>
      </trkpt>
      <trkpt lat="43.85903" lon="6.25778">
        <ele>1109.4</ele>
        <time>2016-09-18T07:29:56Z</time>
      </trkpt>
      <trkpt lat="43.8592" lon="6.25862">
        <ele>1115.6</ele>
        <time>2016-09-18T07:30:24Z</time>
      </trkpt>
      <trkpt lat="43.85969" lon="6.25921">
        <ele>1122.1</ele>
        <time>2016-09-18T07:30:55Z</time>
      </trkpt>
      <trkpt lat="43.86038" lon="6.25949">
        <ele>1128.4</ele>
        <time>2016-09-18T07:31:29Z</time>
      </trkpt>
      <trkpt lat="43.86045" lon="6.25867">
        <ele>1132.8</ele>
        <time>2016-09-18T07:31:56Z</time>
      </trkpt>
      <trkpt lat="43.86096" lon="6.25772">
        <ele>1142.1</ele>
        <time>2016-09-18T07:32:37Z</time>
      </trkpt>
      <trkpt lat="43.86165" lon="6.25661">
        <ele>1151.4</ele>
        <time>2016-09-18T07:33:25Z</time>
      </trkpt>
      <trkpt lat="43.86218" lon="6.25623">
        <ele>1157.6</ele>
        <time>2016-09-18T07:33:54Z</time>
      </trkpt>
      <trkpt lat="43.86272" lon="6.25625">
        <ele>1163.9</ele>
        <time>2016-09-18T07:34:21Z</time>
      </trkpt>
      <trkpt lat="43.86553" lon="6.25669">
        <ele>1194.2</ele>
        <time>2016-09-18T07:36:51Z</time>
      </trkpt>
      <trkpt lat="43.86634" lon="6.25709">
        <ele>1203.8</ele>
        <time>2016-09-18T07:37:36Z</time>
      </trkpt>
      <trkpt lat="43.86676" lon="6.25686">
        <ele>1211.5</ele>
        <time>2016-09-18T07:38:22Z</time>
      </trkpt>
      <trkpt lat="43.86679" lon="6.25684">
        <ele>1212</ele>
        <time>2016-09-18T07:41:13Z</time>
      </trkpt>
      <trkpt lat="43.86804" lon="6.25641">
        <ele>1218.2</ele>
        <time>2016-09-18T07:42:20Z</time>
      </trkpt>
      <trkpt lat="43.86794" lon="6.25659">
        <ele>1219</ele>
        <time>2016-09-18T07:42:30Z</time>
      </trkpt>
      <trkpt lat="43.86707" lon="6.25698">
        <ele>1222.5</ele>
        <time>2016-09-18T07:43:13Z</time>
      </trkpt>
      <trkpt lat="43.86648" lon="6.25765">
        <ele>1228.2</ele>
        <time>2016-09-18T07:43:51Z</time>
      </trkpt>
      <trkpt lat="43.86504" lon="6.25793">
        <ele>1244.1</ele>
        <time>2016-09-18T07:45:09Z</time>
      </trkpt>
      <trkpt lat="43.86365" lon="6.25865">
        <ele>1259.6</ele>
        <time>2016-09-18T07:46:28Z</time>
      </trkpt>
      <trkpt lat="43.86312" lon="6.25904">
        <ele>1265.9</ele>
        <time>2016-09-18T07:46:59Z</time>
      </trkpt>
      <trkpt lat="43.86296" lon="6.25941">
        <ele>1268.9</ele>
        <time>2016-09-18T07:47:15Z</time>
      </trkpt>
      <trkpt lat="43.86306" lon="6.26009">
        <ele>1275.4</ele>
        <time>2016-09-18T07:47:41Z</time>
      </trkpt>
      <trkpt lat="43.86368" lon="6.26116">
        <ele>1288</ele>
        <time>2016-09-18T07:48:37Z</time>
      </trkpt>
      <trkpt lat="43.8649" lon="6.26217">
        <ele>1306.4</ele>
        <time>2016-09-18T07:49:59Z</time>
      </trkpt>
      <trkpt lat="43.86533" lon="6.26235">
        <ele>1312.6</ele>
        <time>2016-09-18T07:50:24Z</time>
      </trkpt>
      <trkpt lat="43.86557" lon="6.26242">
        <ele>1315.6</ele>
        <time>2016-09-18T07:50:38Z</time>
      </trkpt>
      <trkpt lat="43.86582" lon="6.26263">
        <ele>1318.7</ele>
        <time>2016-09-18T07:50:54Z</time>
      </trkpt>
      <trkpt lat="43.86588" lon="6.26478">
        <ele>1337.1</ele>
        <time>2016-09-18T07:52:19Z</time>
      </trkpt>
      <trkpt lat="43.86548" lon="6.26594">
        <ele>1349.1</ele>
        <time>2016-09-18T07:53:13Z</time>
      </trkpt>
      <trkpt lat="43.86496" lon="6.26589">
        <ele>1357.8</ele>
        <time>2016-09-18T07:53:51Z</time>
      </trkpt>
      <trkpt lat="43.86448" lon="6.26649">
        <ele>1364.4</ele>
        <time>2016-09-18T07:54:56Z</time>
      </trkpt>
      <trkpt lat="43.86409" lon="6.26608">
        <ele>1370.1</ele>
        <time>2016-09-18T07:55:24Z</time>
      </trkpt>
      <trkpt lat="43.86362" lon="6.26616">
        <ele>1376.4</ele>
        <time>2016-09-18T07:55:52Z</time>
      </trkpt>
      <trkpt lat="43.86311" lon="6.2663">
        <ele>1382.7</ele>
        <time>2016-09-18T07:56:20Z</time>
      </trkpt>
      <trkpt lat="43.86245" lon="6.26684">
        <ele>1391.9</ele>
        <time>2016-09-18T07:57:03Z</time>
      </trkpt>
      <trkpt lat="43.8622" lon="6.26738">
        <ele>1398.2</ele>
        <time>2016-09-18T07:57:29Z</time>
      </trkpt>
      <trkpt lat="43.86187" lon="6.26805">
        <ele>1404.1</ele>
        <time>2016-09-18T07:58:00Z</time>
      </trkpt>
      <trkpt lat="43.86158" lon="6.2683">
        <ele>1406.5</ele>
        <time>2016-09-18T07:58:17Z</time>
      </trkpt>
      <trkpt lat="43.86138" lon="6.26885">
        <ele>1411.7</ele>
        <time>2016-09-18T07:58:48Z</time>
      </trkpt>
      <trkpt lat="43.86161" lon="6.26942">
        <ele>1415.2</ele>
        <time>2016-09-18T07:59:38Z</time>
      </trkpt>
      <trkpt lat="43.86151" lon="6.26978">
        <ele>1417.9</ele>
        <time>2016-09-18T07:59:52Z</time>
      </trkpt>
      <trkpt lat="43.86149" lon="6.26991">
        <ele>1418.6</ele>
        <time>2016-09-18T07:59:57Z</time>
      </trkpt>
      <trkpt lat="43.86125" lon="6.27051">
        <ele>1423.4</ele>
        <time>2016-09-18T08:00:26Z</time>
      </trkpt>
      <trkpt lat="43.86117" lon="6.27061">
        <ele>1424.3</ele>
        <time>2016-09-18T08:00:31Z</time>
      </trkpt>
      <trkpt lat="43.86105" lon="6.27091">
        <ele>1426.2</ele>
        <time>2016-09-18T08:00:44Z</time>
      </trkpt>
      <trkpt lat="43.86093" lon="6.27121">
        <ele>1429.8</ele>
        <time>2016-09-18T08:00:57Z</time>
      </trkpt>
      <trkpt lat="43.86101" lon="6.27131">
        <ele>1431.2</ele>
        <time>2016-09-18T08:01:06Z</time>
      </trkpt>
      <trkpt lat="43.86175" lon="6.27111">
        <ele>1439.2</ele>
        <time>2016-09-18T08:01:51Z</time>
      </trkpt>
      <trkpt lat="43.86294" lon="6.2707">
        <ele>1452.8</ele>
        <time>2016-09-18T08:02:54Z</time>
      </trkpt>
      <trkpt lat="43.86444" lon="6.27095">
        <ele>1469.5</ele>
        <time>2016-09-18T08:04:11Z</time>
      </trkpt>
      <trkpt lat="43.86557" lon="6.27094">
        <ele>1481.2</ele>
        <time>2016-09-18T08:05:08Z</time>
      </trkpt>
      <trkpt lat="43.86558" lon="6.27095">
        <ele>1481.4</ele>
        <time>2016-09-18T08:05:09Z</time>
      </trkpt>
      <trkpt lat="43.86368" lon="6.27162">
        <ele>1487.5</ele>
        <time>2016-09-18T08:06:51Z</time>
      </trkpt>
      <trkpt lat="43.86119" lon="6.27361">
        <ele>1492.4</ele>
        <time>2016-09-18T08:08:47Z</time>
      </trkpt>
      <trkpt lat="43.86104" lon="6.2739">
        <ele>1493.2</ele>
        <time>2016-09-18T08:09:01Z</time>
      </trkpt>
      <trkpt lat="43.85982" lon="6.27561">
        <ele>1497.7</ele>
        <time>2016-09-18T08:11:33Z</time>
      </trkpt>
      <trkpt lat="43.85879" lon="6.27664">
        <ele>1502.3</ele>
        <time>2016-09-18T08:12:12Z</time>
      </trkpt>
      <trkpt lat="43.85821" lon="6.27709">
        <ele>1505.3</ele>
        <time>2016-09-18T08:12:32Z</time>
      </trkpt>
      <trkpt lat="43.85666" lon="6.27771">
        <ele>1514.3</ele>
        <time>2016-09-18T08:13:23Z</time>
      </trkpt>
      <trkpt lat="43.85627" lon="6.27809">
        <ele>1516.9</ele>
        <time>2016-09-18T08:13:39Z</time>
      </trkpt>
      <trkpt lat="43.85615" lon="6.27915">
        <ele>1522.1</ele>
        <time>2016-09-18T08:14:07Z</time>
      </trkpt>
      <trkpt lat="43.85446" lon="6.28024">
        <ele>1531.1</ele>
        <time>2016-09-18T08:15:09Z</time>
      </trkpt>
      <trkpt lat="43.85332" lon="6.28135">
        <ele>1539</ele>
        <time>2016-09-18T08:15:56Z</time>
      </trkpt>
      <trkpt lat="43.85323" lon="6.28162">
        <ele>1541.7</ele>
        <time>2016-09-18T08:16:46Z</time>
      </trkpt>
      <trkpt lat="43.85312" lon="6.28218">
        <ele>1542</ele>
        <time>2016-09-18T08:17:06Z</time>
      </trkpt>
      <trkpt lat="43.85216" lon="6.28238">
        <ele>1542.4</ele>
        <time>2016-09-18T08:17:39Z</time>
      </trkpt>
      <trkpt lat="43.85149" lon="6.28291">
        <ele>1545.9</ele>
        <time>2016-09-18T08:24:10Z</time>
      </trkpt>
      <trkpt lat="43.85107" lon="6.28311">
        <ele>1544.6</ele>
        <time>2016-09-18T08:37:52Z</time>
      </trkpt>
      <trkpt lat="43.85084" lon="6.28328">
        <ele>1543.7</ele>
        <time>2016-09-18T08:37:57Z</time>
      </trkpt>
      <trkpt lat="43.85052" lon="6.28356">
        <ele>1542.1</ele>
        <time>2016-09-18T08:38:03Z</time>
      </trkpt>
      <trkpt lat="43.85021" lon="6.28399">
        <ele>1540</ele>
        <time>2016-09-18T08:38:09Z</time>
      </trkpt>
      <trkpt lat="43.85004" lon="6.28423">
        <ele>1538.6</ele>
        <time>2016-09-18T08:38:12Z</time>
      </trkpt>
      <trkpt lat="43.84961" lon="6.28477">
        <ele>1532.2</ele>
        <time>2016-09-18T08:38:35Z</time>
      </trkpt>
      <trkpt lat="43.84851" lon="6.28466">
        <ele>1551.6</ele>
        <time>2016-09-18T08:40:15Z</time>
      </trkpt>
      <trkpt lat="43.84712" lon="6.28475">
        <ele>1566.4</ele>
        <time>2016-09-18T08:42:11Z</time>
      </trkpt>
      <trkpt lat="43.84647" lon="6.285">
        <ele>1570.1</ele>
        <time>2016-09-18T08:43:04Z</time>
      </trkpt>
      <trkpt lat="43.84523" lon="6.2854">
        <ele>1584.7</ele>
        <time>2016-09-18T08:45:00Z</time>
      </trkpt>
      <trkpt lat="43.84445" lon="6.28556">
        <ele>1599.3</ele>
        <time>2016-09-18T08:46:30Z</time>
      </trkpt>
      <trkpt lat="43.84401" lon="6.28546">
        <ele>1611</ele>
        <time>2016-09-18T08:47:26Z</time>
      </trkpt>
      <trkpt lat="43.84399" lon="6.28518">
        <ele>1615.9</ele>
        <time>2016-09-18T08:47:52Z</time>
      </trkpt>
      <trkpt lat="43.84392" lon="6.28518">
        <ele>1617.6</ele>
        <time>2016-09-18T08:47:58Z</time>
      </trkpt>
      <trkpt lat="43.84345" lon="6.28505">
        <ele>1627.4</ele>
        <time>2016-09-18T08:48:45Z</time>
      </trkpt>
      <trkpt lat="43.84354" lon="6.28497">
        <ele>1630.9</ele>
        <time>2016-09-18T08:49:19Z</time>
      </trkpt>
      <trkpt lat="43.84353" lon="6.28496">
        <ele>1630.9</ele>
        <time>2016-09-18T08:51:34Z</time>
      </trkpt>
      <trkpt lat="43.84307" lon="6.28529">
        <ele>1624.3</ele>
        <time>2016-09-18T08:54:54Z</time>
      </trkpt>
      <trkpt lat="43.84306" lon="6.28553">
        <ele>1621</ele>
        <time>2016-09-18T08:55:03Z</time>
      </trkpt>
      <trkpt lat="43.84318" lon="6.2856">
        <ele>1617.1</ele>
        <time>2016-09-18T08:55:10Z</time>
      </trkpt>
      <trkpt lat="43.84383" lon="6.28608">
        <ele>1600.5</ele>
        <time>2016-09-18T08:55:55Z</time>
      </trkpt>
      <trkpt lat="43.84417" lon="6.28668">
        <ele>1575</ele>
        <time>2016-09-18T08:56:45Z</time>
      </trkpt>
      <trkpt lat="43.8443" lon="6.28688">
        <ele>1571.3</ele>
        <time>2016-09-18T08:56:52Z</time>
      </trkpt>
      <trkpt lat="43.84434" lon="6.28696">
        <ele>1567.5</ele>
        <time>2016-09-18T08:56:55Z</time>
      </trkpt>
      <trkpt lat="43.84439" lon="6.28712">
        <ele>1561</ele>
        <time>2016-09-18T08:57:01Z</time>
      </trkpt>
      <trkpt lat="43.8444" lon="6.28744">
        <ele>1553.6</ele>
        <time>2016-09-18T08:57:12Z</time>
      </trkpt>
      <trkpt lat="43.84445" lon="6.28764">
        <ele>1546.4</ele>
        <time>2016-09-18T08:57:20Z</time>
      </trkpt>
      <trkpt lat="43.84449" lon="6.2878">
        <ele>1539.6</ele>
        <time>2016-09-18T08:57:28Z</time>
      </trkpt>
      <trkpt lat="43.84447" lon="6.28782">
        <ele>1533.2</ele>
        <time>2016-09-18T08:57:42Z</time>
      </trkpt>
      <trkpt lat="43.84473" lon="6.28819">
        <ele>1524.9</ele>
        <time>2016-09-18T08:58:28Z</time>
      </trkpt>
      <trkpt lat="43.8449" lon="6.28841">
        <ele>1516.8</ele>
        <time>2016-09-18T08:58:38Z</time>
      </trkpt>
      <trkpt lat="43.84493" lon="6.28896">
        <ele>1506.1</ele>
        <time>2016-09-18T08:58:53Z</time>
      </trkpt>
      <trkpt lat="43.84486" lon="6.28939">
        <ele>1493.2</ele>
        <time>2016-09-18T08:59:05Z</time>
      </trkpt>
      <trkpt lat="43.8446" lon="6.28953">
        <ele>1487.9</ele>
        <time>2016-09-18T08:59:11Z</time>
      </trkpt>
      <trkpt lat="43.84444" lon="6.28962">
        <ele>1485.6</ele>
        <time>2016-09-18T08:59:14Z</time>
      </trkpt>
      <trkpt lat="43.84346" lon="6.29037">
        <ele>1476.4</ele>
        <time>2016-09-18T08:59:32Z</time>
      </trkpt>
      <trkpt lat="43.84287" lon="6.29033">
        <ele>1472.7</ele>
        <time>2016-09-18T08:59:43Z</time>
      </trkpt>
      <trkpt lat="43.84261" lon="6.29061">
        <ele>1468</ele>
        <time>2016-09-18T08:59:52Z</time>
      </trkpt>
      <trkpt lat="43.84213" lon="6.29215">
        <ele>1459.1</ele>
        <time>2016-09-18T09:00:35Z</time>
      </trkpt>
      <trkpt lat="43.84169" lon="6.2925">
        <ele>1459.1</ele>
        <time>2016-09-18T09:01:50Z</time>
      </trkpt>
      <trkpt lat="43.84116" lon="6.29325">
        <ele>1452.4</ele>
        <time>2016-09-18T09:02:43Z</time>
      </trkpt>
      <trkpt lat="43.83946" lon="6.29403">
        <ele>1462.6</ele>
        <time>2016-09-18T09:04:01Z</time>
      </trkpt>
      <trkpt lat="43.83902" lon="6.29489">
        <ele>1462.2</ele>
        <time>2016-09-18T09:04:31Z</time>
      </trkpt>
      <trkpt lat="43.83867" lon="6.2952">
        <ele>1465.4</ele>
        <time>2016-09-18T09:04:51Z</time>
      </trkpt>
      <trkpt lat="43.83753" lon="6.29552">
        <ele>1478.4</ele>
        <time>2016-09-18T09:05:51Z</time>
      </trkpt>
      <trkpt lat="43.8369" lon="6.29541">
        <ele>1485.2</ele>
        <time>2016-09-18T09:06:36Z</time>
      </trkpt>
      <trkpt lat="43.83641" lon="6.29531">
        <ele>1486.8</ele>
        <time>2016-09-18T09:08:26Z</time>
      </trkpt>
      <trkpt lat="43.83599" lon="6.29559">
        <ele>1489.2</ele>
        <time>2016-09-18T09:08:50Z</time>
      </trkpt>
      <trkpt lat="43.83591" lon="6.2956">
        <ele>1489.2</ele>
        <time>2016-09-18T09:08:53Z</time>
      </trkpt>
      <trkpt lat="43.83572" lon="6.2957">
        <ele>1486.7</ele>
        <time>2016-09-18T09:09:09Z</time>
      </trkpt>
      <trkpt lat="43.83565" lon="6.2961">
        <ele>1485.3</ele>
        <time>2016-09-18T09:09:34Z</time>
      </trkpt>
      <trkpt lat="43.83519" lon="6.29654">
        <ele>1487.7</ele>
        <time>2016-09-18T09:10:52Z</time>
      </trkpt>
      <trkpt lat="43.83459" lon="6.29707">
        <ele>1480.8</ele>
        <time>2016-09-18T09:13:04Z</time>
      </trkpt>
      <trkpt lat="43.83441" lon="6.29731">
        <ele>1475.1</ele>
        <time>2016-09-18T09:13:19Z</time>
      </trkpt>
      <trkpt lat="43.83424" lon="6.29744">
        <ele>1467.6</ele>
        <time>2016-09-18T09:13:52Z</time>
      </trkpt>
      <trkpt lat="43.8343" lon="6.29771">
        <ele>1460.6</ele>
        <time>2016-09-18T09:14:21Z</time>
      </trkpt>
      <trkpt lat="43.83396" lon="6.298">
        <ele>1458</ele>
        <time>2016-09-18T09:14:34Z</time>
      </trkpt>
      <trkpt lat="43.83358" lon="6.29824">
        <ele>1454.4</ele>
        <time>2016-09-18T09:14:42Z</time>
      </trkpt>
      <trkpt lat="43.8335" lon="6.29862">
        <ele>1451.2</ele>
        <time>2016-09-18T09:14:55Z</time>
      </trkpt>
      <trkpt lat="43.83293" lon="6.29887">
        <ele>1457.3</ele>
        <time>2016-09-18T09:15:36Z</time>
      </trkpt>
      <trkpt lat="43.83297" lon="6.29919">
        <ele>1462.1</ele>
        <time>2016-09-18T09:16:10Z</time>
      </trkpt>
      <trkpt lat="43.83329" lon="6.29962">
        <ele>1468.5</ele>
        <time>2016-09-18T09:16:53Z</time>
      </trkpt>
      <trkpt lat="43.83391" lon="6.29972">
        <ele>1467.6</ele>
        <time>2016-09-18T09:17:30Z</time>
      </trkpt>
      <trkpt lat="43.83424" lon="6.30021">
        <ele>1476</ele>
        <time>2016-09-18T09:18:01Z</time>
      </trkpt>
      <trkpt lat="43.83425" lon="6.30088">
        <ele>1477.5</ele>
        <time>2016-09-18T09:18:29Z</time>
      </trkpt>
      <trkpt lat="43.83417" lon="6.30133">
        <ele>1476.1</ele>
        <time>2016-09-18T09:18:40Z</time>
      </trkpt>
      <trkpt lat="43.834" lon="6.30189">
        <ele>1471.3</ele>
        <time>2016-09-18T09:18:51Z</time>
      </trkpt>
      <trkpt lat="43.8339" lon="6.30261">
        <ele>1464.8</ele>
        <time>2016-09-18T09:19:16Z</time>
      </trkpt>
      <trkpt lat="43.83406" lon="6.30314">
        <ele>1463</ele>
        <time>2016-09-18T09:19:33Z</time>
      </trkpt>
      <trkpt lat="43.83418" lon="6.30357">
        <ele>1459.9</ele>
        <time>2016-09-18T09:19:46Z</time>
      </trkpt>
      <trkpt lat="43.83413" lon="6.3043">
        <ele>1450.6</ele>
        <time>2016-09-18T09:20:05Z</time>
      </trkpt>
      <trkpt lat="43.83305" lon="6.30565">
        <ele>1452.8</ele>
        <time>2016-09-18T09:21:09Z</time>
      </trkpt>
      <trkpt lat="43.83285" lon="6.30579">
        <ele>1458.1</ele>
        <time>2016-09-18T09:21:22Z</time>
      </trkpt>
      <trkpt lat="43.83245" lon="6.30602">
        <ele>1462.6</ele>
        <time>2016-09-18T09:21:48Z</time>
      </trkpt>
      <trkpt lat="43.83205" lon="6.30664">
        <ele>1463.7</ele>
        <time>2016-09-18T09:22:15Z</time>
      </trkpt>
      <trkpt lat="43.83195" lon="6.30736">
        <ele>1460</ele>
        <time>2016-09-18T09:22:32Z</time>
      </trkpt>
      <trkpt lat="43.83183" lon="6.30763">
        <ele>1454.3</ele>
        <time>2016-09-18T09:22:39Z</time>
      </trkpt>
      <trkpt lat="43.83156" lon="6.30811">
        <ele>1447.2</ele>
        <time>2016-09-18T09:22:55Z</time>
      </trkpt>
      <trkpt lat="43.83141" lon="6.30882">
        <ele>1438.7</ele>
        <time>2016-09-18T09:23:12Z</time>
      </trkpt>
      <trkpt lat="43.83105" lon="6.30941">
        <ele>1433.3</ele>
        <time>2016-09-18T09:23:32Z</time>
      </trkpt>
      <trkpt lat="43.82993" lon="6.31059">
        <ele>1439.2</ele>
        <time>2016-09-18T09:24:33Z</time>
      </trkpt>
      <trkpt lat="43.82909" lon="6.31123">
        <ele>1442.4</ele>
        <time>2016-09-18T09:25:12Z</time>
      </trkpt>
      <trkpt lat="43.82876" lon="6.31174">
        <ele>1441.5</ele>
        <time>2016-09-18T09:25:27Z</time>
      </trkpt>
      <trkpt lat="43.8286" lon="6.31193">
        <ele>1439.8</ele>
        <time>2016-09-18T09:25:33Z</time>
      </trkpt>
      <trkpt lat="43.82829" lon="6.31194">
        <ele>1436.6</ele>
        <time>2016-09-18T09:25:45Z</time>
      </trkpt>
      <trkpt lat="43.82809" lon="6.31163">
        <ele>1435</ele>
        <time>2016-09-18T09:25:57Z</time>
      </trkpt>
      <trkpt lat="43.82788" lon="6.31223">
        <ele>1431.4</ele>
        <time>2016-09-18T09:26:14Z</time>
      </trkpt>
      <trkpt lat="43.82762" lon="6.31243">
        <ele>1428.1</ele>
        <time>2016-09-18T09:26:24Z</time>
      </trkpt>
      <trkpt lat="43.82673" lon="6.31385">
        <ele>1415.1</ele>
        <time>2016-09-18T09:27:14Z</time>
      </trkpt>
      <trkpt lat="43.82637" lon="6.31506">
        <ele>1402.8</ele>
        <time>2016-09-18T09:27:44Z</time>
      </trkpt>
      <trkpt lat="43.82637" lon="6.31537">
        <ele>1397.7</ele>
        <time>2016-09-18T09:28:29Z</time>
      </trkpt>
      <trkpt lat="43.82622" lon="6.31561">
        <ele>1397.2</ele>
        <time>2016-09-18T09:28:39Z</time>
      </trkpt>
      <trkpt lat="43.82578" lon="6.31682">
        <ele>1386.3</ele>
        <time>2016-09-18T09:29:12Z</time>
      </trkpt>
      <trkpt lat="43.82572" lon="6.31694">
        <ele>1381.3</ele>
        <time>2016-09-18T09:30:39Z</time>
      </trkpt>
      <trkpt lat="43.82554" lon="6.31767">
        <ele>1377.8</ele>
        <time>2016-09-18T09:32:33Z</time>
      </trkpt>
      <trkpt lat="43.82544" lon="6.31813">
        <ele>1374.4</ele>
        <time>2016-09-18T09:32:44Z</time>
      </trkpt>
      <trkpt lat="43.82527" lon="6.31842">
        <ele>1371.1</ele>
        <time>2016-09-18T09:32:53Z</time>
      </trkpt>
      <trkpt lat="43.82501" lon="6.31899">
        <ele>1361.7</ele>
        <time>2016-09-18T09:33:12Z</time>
      </trkpt>
      <trkpt lat="43.82458" lon="6.3193">
        <ele>1346.9</ele>
        <time>2016-09-18T09:33:50Z</time>
      </trkpt>
      <trkpt lat="43.82446" lon="6.31983">
        <ele>1334.1</ele>
        <time>2016-09-18T09:34:26Z</time>
      </trkpt>
      <trkpt lat="43.82424" lon="6.32018">
        <ele>1329.3</ele>
        <time>2016-09-18T09:34:38Z</time>
      </trkpt>
      <trkpt lat="43.82399" lon="6.32031">
        <ele>1325.9</ele>
        <time>2016-09-18T09:35:01Z</time>
      </trkpt>
      <trkpt lat="43.82388" lon="6.32057">
        <ele>1326.5</ele>
        <time>2016-09-18T09:35:19Z</time>
      </trkpt>
      <trkpt lat="43.8235" lon="6.32093">
        <ele>1326.3</ele>
        <time>2016-09-18T09:35:36Z</time>
      </trkpt>
      <trkpt lat="43.82326" lon="6.32121">
        <ele>1324.6</ele>
        <time>2016-09-18T09:35:47Z</time>
      </trkpt>
      <trkpt lat="43.82249" lon="6.322">
        <ele>1324.9</ele>
        <time>2016-09-18T09:36:27Z</time>
      </trkpt>
      <trkpt lat="43.82202" lon="6.32267">
        <ele>1327.5</ele>
        <time>2016-09-18T09:36:59Z</time>
      </trkpt>
      <trkpt lat="43.82135" lon="6.32365">
        <ele>1327.4</ele>
        <time>2016-09-18T09:37:40Z</time>
      </trkpt>
      <trkpt lat="43.8211" lon="6.324">
        <ele>1327.2</ele>
        <time>2016-09-18T09:37:53Z</time>
      </trkpt>
      <trkpt lat="43.8203" lon="6.32544">
        <ele>1319.6</ele>
        <time>2016-09-18T09:38:34Z</time>
      </trkpt>
      <trkpt lat="43.81923" lon="6.32702">
        <ele>1301.4</ele>
        <time>2016-09-18T09:40:28Z</time>
      </trkpt>
      <trkpt lat="43.81904" lon="6.32755">
        <ele>1293.9</ele>
        <time>2016-09-18T09:41:09Z</time>
      </trkpt>
      <trkpt lat="43.81911" lon="6.32805">
        <ele>1285.9</ele>
        <time>2016-09-18T09:41:58Z</time>
      </trkpt>
      <trkpt lat="43.81901" lon="6.32845">
        <ele>1281.8</ele>
        <time>2016-09-18T09:42:13Z</time>
      </trkpt>
      <trkpt lat="43.81879" lon="6.3298">
        <ele>1258.5</ele>
        <time>2016-09-18T09:43:43Z</time>
      </trkpt>
      <trkpt lat="43.81861" lon="6.3302">
        <ele>1251.3</ele>
        <time>2016-09-18T09:44:09Z</time>
      </trkpt>
      <trkpt lat="43.81806" lon="6.33071">
        <ele>1246.4</ele>
        <time>2016-09-18T09:44:47Z</time>
      </trkpt>
      <trkpt lat="43.81735" lon="6.3309">
        <ele>1240.9</ele>
        <time>2016-09-18T09:45:12Z</time>
      </trkpt>
      <trkpt lat="43.81726" lon="6.33108">
        <ele>1239.7</ele>
        <time>2016-09-18T09:45:19Z</time>
      </trkpt>
      <trkpt lat="43.81651" lon="6.33118">
        <ele>1234.8</ele>
        <time>2016-09-18T09:45:49Z</time>
      </trkpt>
      <trkpt lat="43.81621" lon="6.3312">
        <ele>1232.2</ele>
        <time>2016-09-18T09:45:58Z</time>
      </trkpt>
      <trkpt lat="43.81584" lon="6.33145">
        <ele>1220.3</ele>
        <time>2016-09-18T09:46:46Z</time>
      </trkpt>
      <trkpt lat="43.81576" lon="6.33165">
        <ele>1213.7</ele>
        <time>2016-09-18T09:47:10Z</time>
      </trkpt>
      <trkpt lat="43.81565" lon="6.33184">
        <ele>1207.4</ele>
        <time>2016-09-18T09:47:31Z</time>
      </trkpt>
      <trkpt lat="43.81555" lon="6.33201">
        <ele>1205.8</ele>
        <time>2016-09-18T09:47:39Z</time>
      </trkpt>
      <trkpt lat="43.81539" lon="6.33228">
        <ele>1201.6</ele>
        <time>2016-09-18T09:47:48Z</time>
      </trkpt>
      <trkpt lat="43.81517" lon="6.33263">
        <ele>1196.1</ele>
        <time>2016-09-18T09:48:00Z</time>
      </trkpt>
      <trkpt lat="43.8146" lon="6.33327">
        <ele>1199</ele>
        <time>2016-09-18T09:48:34Z</time>
      </trkpt>
      <trkpt lat="43.81433" lon="6.3336">
        <ele>1196.8</ele>
        <time>2016-09-18T09:48:47Z</time>
      </trkpt>
      <trkpt lat="43.81415" lon="6.33377">
        <ele>1195.2</ele>
        <time>2016-09-18T09:48:52Z</time>
      </trkpt>
      <trkpt lat="43.81411" lon="6.33405">
        <ele>1194</ele>
        <time>2016-09-18T09:49:00Z</time>
      </trkpt>
      <trkpt lat="43.81413" lon="6.33417">
        <ele>1192.7</ele>
        <time>2016-09-18T09:49:08Z</time>
      </trkpt>
      <trkpt lat="43.81408" lon="6.33428">
        <ele>1188.9</ele>
        <time>2016-09-18T09:49:22Z</time>
      </trkpt>
      <trkpt lat="43.81386" lon="6.33459">
        <ele>1187.9</ele>
        <time>2016-09-18T09:49:52Z</time>
      </trkpt>
      <trkpt lat="43.81372" lon="6.33473">
        <ele>1183.9</ele>
        <time>2016-09-18T09:50:09Z</time>
      </trkpt>
      <trkpt lat="43.81346" lon="6.33516">
        <ele>1179.3</ele>
        <time>2016-09-18T09:50:25Z</time>
      </trkpt>
      <trkpt lat="43.81322" lon="6.33587">
        <ele>1166.6</ele>
        <time>2016-09-18T09:50:49Z</time>
      </trkpt>
      <trkpt lat="43.8131" lon="6.33597">
        <ele>1162.2</ele>
        <time>2016-09-18T09:50:57Z</time>
      </trkpt>
      <trkpt lat="43.81309" lon="6.33598">
        <ele>1161.6</ele>
        <time>2016-09-18T09:50:59Z</time>
      </trkpt>
      <trkpt lat="43.81303" lon="6.33622">
        <ele>1160.3</ele>
        <time>2016-09-18T09:51:06Z</time>
      </trkpt>
      <trkpt lat="43.81315" lon="6.33638">
        <ele>1158.3</ele>
        <time>2016-09-18T09:51:13Z</time>
      </trkpt>
      <trkpt lat="43.81289" lon="6.3368">
        <ele>1155.3</ele>
        <time>2016-09-18T09:51:30Z</time>
      </trkpt>
      <trkpt lat="43.81279" lon="6.3378">
        <ele>1148.9</ele>
        <time>2016-09-18T09:51:54Z</time>
      </trkpt>
      <trkpt lat="43.81263" lon="6.3381">
        <ele>1147.6</ele>
        <time>2016-09-18T09:52:03Z</time>
      </trkpt>
      <trkpt lat="43.81277" lon="6.3383">
        <ele>1148.6</ele>
        <time>2016-09-18T09:52:29Z</time>
      </trkpt>
      <trkpt lat="43.81248" lon="6.33826">
        <ele>1148.7</ele>
        <time>2016-09-18T09:53:13Z</time>
      </trkpt>
      <trkpt lat="43.81204" lon="6.33864">
        <ele>1146.4</ele>
        <time>2016-09-18T09:54:05Z</time>
      </trkpt>
      <trkpt lat="43.81202" lon="6.33812">
        <ele>1138.6</ele>
        <time>2016-09-18T09:57:04Z</time>
      </trkpt>
      <trkpt lat="43.81231" lon="6.33799">
        <ele>1140.3</ele>
        <time>2016-09-18T09:57:31Z</time>
      </trkpt>
      <trkpt lat="43.81219" lon="6.33796">
        <ele>1140.1</ele>
        <time>2016-09-18T09:57:37Z</time>
      </trkpt>
      <trkpt lat="43.81218" lon="6.3376">
        <ele>1136.7</ele>
        <time>2016-09-18T09:57:47Z</time>
      </trkpt>
      <trkpt lat="43.81207" lon="6.33769">
        <ele>1134.4</ele>
        <time>2016-09-18T09:58:02Z</time>
      </trkpt>
      <trkpt lat="43.81181" lon="6.33815">
        <ele>1130.4</ele>
        <time>2016-09-18T09:58:13Z</time>
      </trkpt>
      <trkpt lat="43.81178" lon="6.33817">
        <ele>1129.4</ele>
        <time>2016-09-18T09:58:15Z</time>
      </trkpt>
      <trkpt lat="43.81161" lon="6.33695">
        <ele>1121.8</ele>
        <time>2016-09-18T09:58:40Z</time>
      </trkpt>
      <trkpt lat="43.81161" lon="6.33575">
        <ele>1111.3</ele>
        <time>2016-09-18T09:58:56Z</time>
      </trkpt>
      <trkpt lat="43.81113" lon="6.33482">
        <ele>1100.3</ele>
        <time>2016-09-18T09:59:15Z</time>
      </trkpt>
      <trkpt lat="43.8111" lon="6.33486">
        <ele>1099.1</ele>
        <time>2016-09-18T09:59:17Z</time>
      </trkpt>
      <trkpt lat="43.81109" lon="6.33549">
        <ele>1096.6</ele>
        <time>2016-09-18T09:59:28Z</time>
      </trkpt>
      <trkpt lat="43.81116" lon="6.33598">
        <ele>1094.1</ele>
        <time>2016-09-18T09:59:33Z</time>
      </trkpt>
      <trkpt lat="43.81113" lon="6.33638">
        <ele>1091.5</ele>
        <time>2016-09-18T09:59:37Z</time>
      </trkpt>
      <trkpt lat="43.81107" lon="6.3364">
        <ele>1089.2</ele>
        <time>2016-09-18T09:59:40Z</time>
      </trkpt>
      <trkpt lat="43.81081" lon="6.33529">
        <ele>1081.5</ele>
        <time>2016-09-18T09:59:54Z</time>
      </trkpt>
      <trkpt lat="43.81067" lon="6.33472">
        <ele>1074.6</ele>
        <time>2016-09-18T10:00:01Z</time>
      </trkpt>
      <trkpt lat="43.81056" lon="6.33442">
        <ele>1067.9</ele>
        <time>2016-09-18T10:00:07Z</time>
      </trkpt>
      <trkpt lat="43.80994" lon="6.33353">
        <ele>1058.2</ele>
        <time>2016-09-18T10:00:23Z</time>
      </trkpt>
      <trkpt lat="43.80942" lon="6.33308">
        <ele>1049.5</ele>
        <time>2016-09-18T10:00:31Z</time>
      </trkpt>
      <trkpt lat="43.80925" lon="6.33311">
        <ele>1046.9</ele>
        <time>2016-09-18T10:00:35Z</time>
      </trkpt>
      <trkpt lat="43.80797" lon="6.33398">
        <ele>1039</ele>
        <time>2016-09-18T10:01:00Z</time>
      </trkpt>
      <trkpt lat="43.80769" lon="6.33419">
        <ele>1035.5</ele>
        <time>2016-09-18T10:01:03Z</time>
      </trkpt>
      <trkpt lat="43.80692" lon="6.33497">
        <ele>1024.3</ele>
        <time>2016-09-18T10:01:13Z</time>
      </trkpt>
      <trkpt lat="43.8068" lon="6.33514">
        <ele>1019</ele>
        <time>2016-09-18T10:01:18Z</time>
      </trkpt>
      <trkpt lat="43.80678" lon="6.33513">
        <ele>1016.1</ele>
        <time>2016-09-18T10:02:03Z</time>
      </trkpt>
      <trkpt lat="43.80575" lon="6.33825">
        <ele>1014.2</ele>
        <time>2016-09-18T10:03:04Z</time>
      </trkpt>
      <trkpt lat="43.80561" lon="6.33909">
        <ele>1014.8</ele>
        <time>2016-09-18T10:03:20Z</time>
      </trkpt>
      <trkpt lat="43.8044" lon="6.34321">
        <ele>1015.2</ele>
        <time>2016-09-18T10:04:20Z</time>
      </trkpt>
      <trkpt lat="43.8039" lon="6.34371">
        <ele>1018.3</ele>
        <time>2016-09-18T10:04:35Z</time>
      </trkpt>
      <trkpt lat="43.80324" lon="6.34382">
        <ele>1017.7</ele>
        <time>2016-09-18T10:04:46Z</time>
      </trkpt>
      <trkpt lat="43.80221" lon="6.34354">
        <ele>1014.3</ele>
        <time>2016-09-18T10:05:04Z</time>
      </trkpt>
      <trkpt lat="43.80095" lon="6.34267">
        <ele>1017.7</ele>
        <time>2016-09-18T10:05:37Z</time>
      </trkpt>
      <trkpt lat="43.80039" lon="6.3425">
        <ele>1019.4</ele>
        <time>2016-09-18T10:05:50Z</time>
      </trkpt>
      <trkpt lat="43.7993" lon="6.34215">
        <ele>1020.4</ele>
        <time>2016-09-18T10:12:12Z</time>
      </trkpt>
      <trkpt lat="43.79908" lon="6.34149">
        <ele>1022.4</ele>
        <time>2016-09-18T10:12:41Z</time>
      </trkpt>
      <trkpt lat="43.7991" lon="6.34055">
        <ele>1026.9</ele>
        <time>2016-09-18T10:13:12Z</time>
      </trkpt>
      <trkpt lat="43.79944" lon="6.33956">
        <ele>1031.3</ele>
        <time>2016-09-18T10:13:45Z</time>
      </trkpt>
      <trkpt lat="43.7993" lon="6.33895">
        <ele>1034</ele>
        <time>2016-09-18T10:14:04Z</time>
      </trkpt>
      <trkpt lat="43.79908" lon="6.33863">
        <ele>1036.5</ele>
        <time>2016-09-18T10:14:21Z</time>
      </trkpt>
      <trkpt lat="43.79892" lon="6.33827">
        <ele>1038.1</ele>
        <time>2016-09-18T10:14:32Z</time>
      </trkpt>
      <trkpt lat="43.79829" lon="6.33734">
        <ele>1044.3</ele>
        <time>2016-09-18T10:15:03Z</time>
      </trkpt>
      <trkpt lat="43.79794" lon="6.33782">
        <ele>1047.3</ele>
        <time>2016-09-18T10:15:17Z</time>
      </trkpt>
      <trkpt lat="43.7976" lon="6.33873">
        <ele>1048.9</ele>
        <time>2016-09-18T10:15:36Z</time>
      </trkpt>
      <trkpt lat="43.79753" lon="6.33971">
        <ele>1050.6</ele>
        <time>2016-09-18T10:15:53Z</time>
      </trkpt>
      <trkpt lat="43.79731" lon="6.34009">
        <ele>1050.9</ele>
        <time>2016-09-18T10:16:01Z</time>
      </trkpt>
      <trkpt lat="43.7969" lon="6.34033">
        <ele>1051.1</ele>
        <time>2016-09-18T10:16:11Z</time>
      </trkpt>
      <trkpt lat="43.79624" lon="6.34027">
        <ele>1050.8</ele>
        <time>2016-09-18T10:16:26Z</time>
      </trkpt>
      <trkpt lat="43.79576" lon="6.33979">
        <ele>1050.9</ele>
        <time>2016-09-18T10:26:10Z</time>
      </trkpt>
      <trkpt lat="43.7956" lon="6.33948">
        <ele>1050.8</ele>
        <time>2016-09-18T10:26:17Z</time>
      </trkpt>
      <trkpt lat="43.7956" lon="6.33897">
        <ele>1050.4</ele>
        <time>2016-09-18T10:26:27Z</time>
      </trkpt>
      <trkpt lat="43.7956" lon="6.33803">
        <ele>1049.1</ele>
        <time>2016-09-18T10:26:41Z</time>
      </trkpt>
      <trkpt lat="43.79663" lon="6.33235">
        <ele>1039.2</ele>
        <time>2016-09-18T10:27:55Z</time>
      </trkpt>
      <trkpt lat="43.79656" lon="6.33037">
        <ele>1040.7</ele>
        <time>2016-09-18T10:28:26Z</time>
      </trkpt>
      <trkpt lat="43.79625" lon="6.3298">
        <ele>1040.7</ele>
        <time>2016-09-18T10:28:35Z</time>
      </trkpt>
      <trkpt lat="43.79605" lon="6.32949">
        <ele>1038.7</ele>
        <time>2016-09-18T10:28:40Z</time>
      </trkpt>
      <trkpt lat="43.79598" lon="6.32871">
        <ele>1034.1</ele>
        <time>2016-09-18T10:28:48Z</time>
      </trkpt>
      <trkpt lat="43.79598" lon="6.32837">
        <ele>1032.2</ele>
        <time>2016-09-18T10:28:51Z</time>
      </trkpt>
      <trkpt lat="43.79595" lon="6.32815">
        <ele>1030.9</ele>
        <time>2016-09-18T10:28:53Z</time>
      </trkpt>
      <trkpt lat="43.79596" lon="6.32781">
        <ele>1028.2</ele>
        <time>2016-09-18T10:28:56Z</time>
      </trkpt>
      <trkpt lat="43.79606" lon="6.32721">
        <ele>1024.4</ele>
        <time>2016-09-18T10:29:01Z</time>
      </trkpt>
      <trkpt lat="43.7962" lon="6.32619">
        <ele>1019.1</ele>
        <time>2016-09-18T10:29:09Z</time>
      </trkpt>
      <trkpt lat="43.79684" lon="6.32165">
        <ele>997.8</ele>
        <time>2016-09-18T10:29:51Z</time>
      </trkpt>
      <trkpt lat="43.7979" lon="6.31809">
        <ele>982.7</ele>
        <time>2016-09-18T10:30:34Z</time>
      </trkpt>
      <trkpt lat="43.79875" lon="6.31358">
        <ele>985</ele>
        <time>2016-09-18T10:32:05Z</time>
      </trkpt>
      <trkpt lat="43.79887" lon="6.31083">
        <ele>994.7</ele>
        <time>2016-09-18T10:33:06Z</time>
      </trkpt>
      <trkpt lat="43.79911" lon="6.30951">
        <ele>999.7</ele>
        <time>2016-09-18T10:33:35Z</time>
      </trkpt>
      <trkpt lat="43.79902" lon="6.30929">
        <ele>1001.9</ele>
        <time>2016-09-18T10:33:44Z</time>
      </trkpt>
      <trkpt lat="43.79892" lon="6.30929">
        <ele>1004.4</ele>
        <time>2016-09-18T10:34:07Z</time>
      </trkpt>
      <trkpt lat="43.7987" lon="6.3091">
        <ele>1002.8</ele>
        <time>2016-09-18T10:48:16Z</time>
      </trkpt>
      <trkpt lat="43.79862" lon="6.30868">
        <ele>1002.2</ele>
        <time>2016-09-18T10:48:25Z</time>
      </trkpt>
      <trkpt lat="43.79859" lon="6.30842">
        <ele>1001.9</ele>
        <time>2016-09-18T10:48:29Z</time>
      </trkpt>
      <trkpt lat="43.7986" lon="6.30828">
        <ele>1001.5</ele>
        <time>2016-09-18T10:48:31Z</time>
      </trkpt>
      <trkpt lat="43.79861" lon="6.30813">
        <ele>1001</ele>
        <time>2016-09-18T10:48:33Z</time>
      </trkpt>
      <trkpt lat="43.79866" lon="6.30756">
        <ele>998.8</ele>
        <time>2016-09-18T10:48:39Z</time>
      </trkpt>
      <trkpt lat="43.79871" lon="6.30724">
        <ele>997.3</ele>
        <time>2016-09-18T10:48:42Z</time>
      </trkpt>
      <trkpt lat="43.79874" lon="6.30373">
        <ele>986.7</ele>
        <time>2016-09-18T10:49:29Z</time>
      </trkpt>
      <trkpt lat="43.79813" lon="6.30301">
        <ele>989.8</ele>
        <time>2016-09-18T10:49:55Z</time>
      </trkpt>
      <trkpt lat="43.79679" lon="6.30293">
        <ele>1005</ele>
        <time>2016-09-18T10:51:05Z</time>
      </trkpt>
      <trkpt lat="43.79628" lon="6.30314">
        <ele>1011.1</ele>
        <time>2016-09-18T10:51:38Z</time>
      </trkpt>
      <trkpt lat="43.79621" lon="6.30314">
        <ele>1012.2</ele>
        <time>2016-09-18T10:51:43Z</time>
      </trkpt>
      <trkpt lat="43.79618" lon="6.30318">
        <ele>1012.4</ele>
        <time>2016-09-18T10:51:45Z</time>
      </trkpt>
      <trkpt lat="43.79482" lon="6.30351">
        <ele>1028.2</ele>
        <time>2016-09-18T10:53:09Z</time>
      </trkpt>
      <trkpt lat="43.79454" lon="6.30348">
        <ele>1031.7</ele>
        <time>2016-09-18T10:53:25Z</time>
      </trkpt>
      <trkpt lat="43.7943" lon="6.3035">
        <ele>1033.7</ele>
        <time>2016-09-18T10:53:37Z</time>
      </trkpt>
      <trkpt lat="43.7943" lon="6.30291">
        <ele>1038</ele>
        <time>2016-09-18T10:54:03Z</time>
      </trkpt>
      <trkpt lat="43.79463" lon="6.30185">
        <ele>1051.3</ele>
        <time>2016-09-18T10:54:48Z</time>
      </trkpt>
      <trkpt lat="43.79496" lon="6.30069">
        <ele>1063.6</ele>
        <time>2016-09-18T10:55:39Z</time>
      </trkpt>
      <trkpt lat="43.7949" lon="6.30065">
        <ele>1064.3</ele>
        <time>2016-09-18T10:55:43Z</time>
      </trkpt>
      <trkpt lat="43.79435" lon="6.30127">
        <ele>1071.2</ele>
        <time>2016-09-18T10:56:19Z</time>
      </trkpt>
      <trkpt lat="43.79151" lon="6.30298">
        <ele>1115.1</ele>
        <time>2016-09-18T10:59:16Z</time>
      </trkpt>
      <trkpt lat="43.79037" lon="6.30404">
        <ele>1134.9</ele>
        <time>2016-09-18T11:01:10Z</time>
      </trkpt>
      <trkpt lat="43.78996" lon="6.30484">
        <ele>1143.8</ele>
        <time>2016-09-18T11:01:56Z</time>
      </trkpt>
      <trkpt lat="43.78988" lon="6.30522">
        <ele>1146.8</ele>
        <time>2016-09-18T11:02:15Z</time>
      </trkpt>
      <trkpt lat="43.79006" lon="6.30537">
        <ele>1148.6</ele>
        <time>2016-09-18T11:02:28Z</time>
      </trkpt>
      <trkpt lat="43.79054" lon="6.30554">
        <ele>1152.2</ele>
        <time>2016-09-18T11:02:56Z</time>
      </trkpt>
      <trkpt lat="43.79083" lon="6.30565">
        <ele>1154.6</ele>
        <time>2016-09-18T11:03:11Z</time>
      </trkpt>
      <trkpt lat="43.79113" lon="6.3059">
        <ele>1156.7</ele>
        <time>2016-09-18T11:03:27Z</time>
      </trkpt>
      <trkpt lat="43.78977" lon="6.30588">
        <ele>1175.1</ele>
        <time>2016-09-18T11:04:42Z</time>
      </trkpt>
      <trkpt lat="43.78863" lon="6.30529">
        <ele>1193.3</ele>
        <time>2016-09-18T11:05:59Z</time>
      </trkpt>
      <trkpt lat="43.7891" lon="6.30394">
        <ele>1206</ele>
        <time>2016-09-18T11:07:05Z</time>
      </trkpt>
      <trkpt lat="43.78928" lon="6.30298">
        <ele>1215.3</ele>
        <time>2016-09-18T11:07:48Z</time>
      </trkpt>
      <trkpt lat="43.7891" lon="6.30278">
        <ele>1218.9</ele>
        <time>2016-09-18T11:08:02Z</time>
      </trkpt>
      <trkpt lat="43.78916" lon="6.30245">
        <ele>1219.5</ele>
        <time>2016-09-18T11:08:15Z</time>
      </trkpt>
      <trkpt lat="43.78949" lon="6.30213">
        <ele>1218.1</ele>
        <time>2016-09-18T11:08:29Z</time>
      </trkpt>
      <trkpt lat="43.78971" lon="6.30135">
        <ele>1218.1</ele>
        <time>2016-09-18T11:08:47Z</time>
      </trkpt>
      <trkpt lat="43.78929" lon="6.30074">
        <ele>1224.2</ele>
        <time>2016-09-18T11:09:05Z</time>
      </trkpt>
      <trkpt lat="43.78901" lon="6.30017">
        <ele>1225.3</ele>
        <time>2016-09-18T11:09:20Z</time>
      </trkpt>
      <trkpt lat="43.7892" lon="6.29964">
        <ele>1226.2</ele>
        <time>2016-09-18T11:09:32Z</time>
      </trkpt>
      <trkpt lat="43.78924" lon="6.29954">
        <ele>1226.2</ele>
        <time>2016-09-18T11:09:34Z</time>
      </trkpt>
      <trkpt lat="43.78926" lon="6.29929">
        <ele>1226</ele>
        <time>2016-09-18T11:09:38Z</time>
      </trkpt>
      <trkpt lat="43.78927" lon="6.29853">
        <ele>1225.7</ele>
        <time>2016-09-18T11:09:52Z</time>
      </trkpt>
      <trkpt lat="43.7892" lon="6.29843">
        <ele>1225.8</ele>
        <time>2016-09-18T11:09:54Z</time>
      </trkpt>
      <trkpt lat="43.78902" lon="6.29766">
        <ele>1225.8</ele>
        <time>2016-09-18T11:10:07Z</time>
      </trkpt>
      <trkpt lat="43.78851" lon="6.2966">
        <ele>1225.8</ele>
        <time>2016-09-18T11:10:29Z</time>
      </trkpt>
      <trkpt lat="43.78777" lon="6.29541">
        <ele>1228.3</ele>
        <time>2016-09-18T11:10:56Z</time>
      </trkpt>
      <trkpt lat="43.78686" lon="6.2947">
        <ele>1224.1</ele>
        <time>2016-09-18T11:11:15Z</time>
      </trkpt>
      <trkpt lat="43.78674" lon="6.29428">
        <ele>1224.9</ele>
        <time>2016-09-18T11:11:23Z</time>
      </trkpt>
      <trkpt lat="43.78677" lon="6.29412">
        <ele>1224.9</ele>
        <time>2016-09-18T11:11:26Z</time>
      </trkpt>
      <trkpt lat="43.78691" lon="6.29406">
        <ele>1224.9</ele>
        <time>2016-09-18T11:11:29Z</time>
      </trkpt>
      <trkpt lat="43.7871" lon="6.29403">
        <ele>1224.5</ele>
        <time>2016-09-18T11:11:32Z</time>
      </trkpt>
      <trkpt lat="43.78724" lon="6.29395">
        <ele>1224.1</ele>
        <time>2016-09-18T11:11:34Z</time>
      </trkpt>
      <trkpt lat="43.78734" lon="6.29369">
        <ele>1223.1</ele>
        <time>2016-09-18T11:11:37Z</time>
      </trkpt>
      <trkpt lat="43.78705" lon="6.2931">
        <ele>1217.1</ele>
        <time>2016-09-18T11:11:47Z</time>
      </trkpt>
      <trkpt lat="43.78689" lon="6.29176">
        <ele>1212.9</ele>
        <time>2016-09-18T11:12:04Z</time>
      </trkpt>
      <trkpt lat="43.78689" lon="6.2917">
        <ele>1212.6</ele>
        <time>2016-09-18T11:12:11Z</time>
      </trkpt>
      <trkpt lat="43.78696" lon="6.29236">
        <ele>1212.7</ele>
        <time>2016-09-18T11:12:29Z</time>
      </trkpt>
      <trkpt lat="43.78751" lon="6.29207">
        <ele>1210.7</ele>
        <time>2016-09-18T11:12:41Z</time>
      </trkpt>
      <trkpt lat="43.78779" lon="6.29155">
        <ele>1206.3</ele>
        <time>2016-09-18T11:12:51Z</time>
      </trkpt>
      <trkpt lat="43.78784" lon="6.29156">
        <ele>1205.8</ele>
        <time>2016-09-18T11:12:52Z</time>
      </trkpt>
      <trkpt lat="43.78806" lon="6.29161">
        <ele>1202.5</ele>
        <time>2016-09-18T11:12:58Z</time>
      </trkpt>
      <trkpt lat="43.78872" lon="6.29118">
        <ele>1206.2</ele>
        <time>2016-09-18T11:14:19Z</time>
      </trkpt>
      <trkpt lat="43.78916" lon="6.29044">
        <ele>1209.9</ele>
        <time>2016-09-18T11:14:45Z</time>
      </trkpt>
      <trkpt lat="43.78949" lon="6.28947">
        <ele>1216.9</ele>
        <time>2016-09-18T11:15:19Z</time>
      </trkpt>
      <trkpt lat="43.78997" lon="6.28896">
        <ele>1222.8</ele>
        <time>2016-09-18T11:15:46Z</time>
      </trkpt>
      <trkpt lat="43.79003" lon="6.28837">
        <ele>1225.9</ele>
        <time>2016-09-18T11:16:04Z</time>
      </trkpt>
      <trkpt lat="43.79029" lon="6.28802">
        <ele>1227.1</ele>
        <time>2016-09-18T11:16:16Z</time>
      </trkpt>
      <trkpt lat="43.79127" lon="6.28723">
        <ele>1222.6</ele>
        <time>2016-09-18T11:16:36Z</time>
      </trkpt>
      <trkpt lat="43.79195" lon="6.28724">
        <ele>1217</ele>
        <time>2016-09-18T11:16:46Z</time>
      </trkpt>
      <trkpt lat="43.79298" lon="6.28525">
        <ele>1212.8</ele>
        <time>2016-09-18T11:17:25Z</time>
      </trkpt>
      <trkpt lat="43.79358" lon="6.28444">
        <ele>1211.8</ele>
        <time>2016-09-18T11:17:40Z</time>
      </trkpt>
      <trkpt lat="43.79371" lon="6.28426">
        <ele>1210.8</ele>
        <time>2016-09-18T11:17:43Z</time>
      </trkpt>
      <trkpt lat="43.79428" lon="6.28128">
        <ele>1207.2</ele>
        <time>2016-09-18T11:18:26Z</time>
      </trkpt>
      <trkpt lat="43.79449" lon="6.28067">
        <ele>1205.1</ele>
        <time>2016-09-18T11:18:35Z</time>
      </trkpt>
      <trkpt lat="43.79465" lon="6.27947">
        <ele>1202.6</ele>
        <time>2016-09-18T11:18:50Z</time>
      </trkpt>
      <trkpt lat="43.79469" lon="6.27878">
        <ele>1201.5</ele>
        <time>2016-09-18T11:18:57Z</time>
      </trkpt>
      <trkpt lat="43.79494" lon="6.27829">
        <ele>1198.7</ele>
        <time>2016-09-18T11:19:04Z</time>
      </trkpt>
      <trkpt lat="43.7952" lon="6.27718">
        <ele>1199.9</ele>
        <time>2016-09-18T11:19:27Z</time>
      </trkpt>
      <trkpt lat="43.79625" lon="6.27538">
        <ele>1211.8</ele>
        <time>2016-09-18T11:20:28Z</time>
      </trkpt>
      <trkpt lat="43.79666" lon="6.27518">
        <ele>1212.3</ele>
        <time>2016-09-18T11:20:42Z</time>
      </trkpt>
      <trkpt lat="43.79706" lon="6.27498">
        <ele>1213.3</ele>
        <time>2016-09-18T11:20:53Z</time>
      </trkpt>
      <trkpt lat="43.79759" lon="6.27437">
        <ele>1214.4</ele>
        <time>2016-09-18T11:21:13Z</time>
      </trkpt>
      <trkpt lat="43.79764" lon="6.27428">
        <ele>1214.5</ele>
        <time>2016-09-18T11:21:15Z</time>
      </trkpt>
      <trkpt lat="43.79794" lon="6.27373">
        <ele>1214.7</ele>
        <time>2016-09-18T11:21:28Z</time>
      </trkpt>
      <trkpt lat="43.79804" lon="6.27348">
        <ele>1213.8</ele>
        <time>2016-09-18T11:21:49Z</time>
      </trkpt>
      <trkpt lat="43.79865" lon="6.2729">
        <ele>1212.6</ele>
        <time>2016-09-18T11:22:10Z</time>
      </trkpt>
      <trkpt lat="43.79998" lon="6.27087">
        <ele>1209</ele>
        <time>2016-09-18T11:22:58Z</time>
      </trkpt>
      <trkpt lat="43.80082" lon="6.27003">
        <ele>1206.8</ele>
        <time>2016-09-18T11:23:21Z</time>
      </trkpt>
      <trkpt lat="43.80179" lon="6.26956">
        <ele>1209.1</ele>
        <time>2016-09-18T11:23:49Z</time>
      </trkpt>
      <trkpt lat="43.80242" lon="6.26933">
        <ele>1206.6</ele>
        <time>2016-09-18T11:24:03Z</time>
      </trkpt>
      <trkpt lat="43.80309" lon="6.26843">
        <ele>1202.5</ele>
        <time>2016-09-18T11:24:28Z</time>
      </trkpt>
      <trkpt lat="43.8036" lon="6.2681">
        <ele>1198.9</ele>
        <time>2016-09-18T11:25:55Z</time>
      </trkpt>
      <trkpt lat="43.80376" lon="6.26795">
        <ele>1195.6</ele>
        <time>2016-09-18T11:26:00Z</time>
      </trkpt>
      <trkpt lat="43.80435" lon="6.26722">
        <ele>1187.3</ele>
        <time>2016-09-18T11:26:28Z</time>
      </trkpt>
      <trkpt lat="43.80508" lon="6.26587">
        <ele>1172.6</ele>
        <time>2016-09-18T11:27:21Z</time>
      </trkpt>
      <trkpt lat="43.80697" lon="6.26486">
        <ele>1190.4</ele>
        <time>2016-09-18T11:29:06Z</time>
      </trkpt>
      <trkpt lat="43.80742" lon="6.26461">
        <ele>1190.8</ele>
        <time>2016-09-18T11:29:24Z</time>
      </trkpt>
      <trkpt lat="43.80777" lon="6.26468">
        <ele>1190.4</ele>
        <time>2016-09-18T11:29:32Z</time>
      </trkpt>
      <trkpt lat="43.80813" lon="6.26469">
        <ele>1188.2</ele>
        <time>2016-09-18T11:29:39Z</time>
      </trkpt>
      <trkpt lat="43.80856" lon="6.2645">
        <ele>1180.8</ele>
        <time>2016-09-18T11:30:28Z</time>
      </trkpt>
      <trkpt lat="43.80844" lon="6.26452">
        <ele>1179.5</ele>
        <time>2016-09-18T11:34:01Z</time>
      </trkpt>
      <trkpt lat="43.8085" lon="6.26459">
        <ele>1179.3</ele>
        <time>2016-09-18T11:34:11Z</time>
      </trkpt>
      <trkpt lat="43.80876" lon="6.26473">
        <ele>1177.1</ele>
        <time>2016-09-18T11:34:23Z</time>
      </trkpt>
      <trkpt lat="43.809" lon="6.26479">
        <ele>1172.2</ele>
        <time>2016-09-18T11:34:35Z</time>
      </trkpt>
      <trkpt lat="43.80932" lon="6.26493">
        <ele>1161.1</ele>
        <time>2016-09-18T11:34:59Z</time>
      </trkpt>
      <trkpt lat="43.81238" lon="6.26472">
        <ele>1111.4</ele>
        <time>2016-09-18T11:37:49Z</time>
      </trkpt>
      <trkpt lat="43.8128" lon="6.26457">
        <ele>1104</ele>
        <time>2016-09-18T11:38:05Z</time>
      </trkpt>
      <trkpt lat="43.81281" lon="6.26455">
        <ele>1101.7</ele>
        <time>2016-09-18T11:38:10Z</time>
      </trkpt>
      <trkpt lat="43.81281" lon="6.26473">
        <ele>1100.2</ele>
        <time>2016-09-18T11:38:20Z</time>
      </trkpt>
      <trkpt lat="43.81251" lon="6.26508">
        <ele>1096.5</ele>
        <time>2016-09-18T11:38:31Z</time>
      </trkpt>
      <trkpt lat="43.81233" lon="6.26537">
        <ele>1094.2</ele>
        <time>2016-09-18T11:38:37Z</time>
      </trkpt>
      <trkpt lat="43.8122" lon="6.26562">
        <ele>1091</ele>
        <time>2016-09-18T11:38:42Z</time>
      </trkpt>
      <trkpt lat="43.8116" lon="6.26666">
        <ele>1063.2</ele>
        <time>2016-09-18T11:39:11Z</time>
      </trkpt>
      <trkpt lat="43.81137" lon="6.26704">
        <ele>1056</ele>
        <time>2016-09-18T11:39:19Z</time>
      </trkpt>
      <trkpt lat="43.81137" lon="6.26704">
        <ele>1051.4</ele>
        <time>2016-09-18T11:39:22Z</time>
      </trkpt>
      <trkpt lat="43.81138" lon="6.26706">
        <ele>1049</ele>
        <time>2016-09-18T11:39:24Z</time>
      </trkpt>
      <trkpt lat="43.81207" lon="6.26703">
        <ele>1042.1</ele>
        <time>2016-09-18T11:39:38Z</time>
      </trkpt>
      <trkpt lat="43.81273" lon="6.26688">
        <ele>1032.5</ele>
        <time>2016-09-18T11:39:47Z</time>
      </trkpt>
      <trkpt lat="43.81322" lon="6.26675">
        <ele>1021.5</ele>
        <time>2016-09-18T11:39:55Z</time>
      </trkpt>
      <trkpt lat="43.81383" lon="6.26682">
        <ele>1013.9</ele>
        <time>2016-09-18T11:40:04Z</time>
      </trkpt>
      <trkpt lat="43.81417" lon="6.26693">
        <ele>1008.4</ele>
        <time>2016-09-18T11:40:10Z</time>
      </trkpt>
      <trkpt lat="43.81476" lon="6.26722">
        <ele>1000.5</ele>
        <time>2016-09-18T11:40:19Z</time>
      </trkpt>
      <trkpt lat="43.81508" lon="6.26764">
        <ele>994.3</ele>
        <time>2016-09-18T11:40:25Z</time>
      </trkpt>
      <trkpt lat="43.81544" lon="6.26777">
        <ele>985.3</ele>
        <time>2016-09-18T11:40:31Z</time>
      </trkpt>
      <trkpt lat="43.8156" lon="6.26808">
        <ele>981.2</ele>
        <time>2016-09-18T11:40:36Z</time>
      </trkpt>
      <trkpt lat="43.81565" lon="6.2682">
        <ele>976.5</ele>
        <time>2016-09-18T11:40:41Z</time>
      </trkpt>
      <trkpt lat="43.81581" lon="6.2691">
        <ele>965.7</ele>
        <time>2016-09-18T11:40:59Z</time>
      </trkpt>
      <trkpt lat="43.8161" lon="6.26933">
        <ele>960.4</ele>
        <time>2016-09-18T11:41:05Z</time>
      </trkpt>
      <trkpt lat="43.81786" lon="6.26948">
        <ele>943.9</ele>
        <time>2016-09-18T11:44:21Z</time>
      </trkpt>
      <trkpt lat="43.81872" lon="6.27015">
        <ele>946.7</ele>
        <time>2016-09-18T11:44:53Z</time>
      </trkpt>
      <trkpt lat="43.81918" lon="6.27032">
        <ele>946.4</ele>
        <time>2016-09-18T11:45:02Z</time>
      </trkpt>
      <trkpt lat="43.8197" lon="6.27006">
        <ele>939</ele>
        <time>2016-09-18T11:45:12Z</time>
      </trkpt>
      <trkpt lat="43.81975" lon="6.27021">
        <ele>935.2</ele>
        <time>2016-09-18T11:45:16Z</time>
      </trkpt>
      <trkpt lat="43.81937" lon="6.27095">
        <ele>928.1</ele>
        <time>2016-09-18T11:45:25Z</time>
      </trkpt>
      <trkpt lat="43.81892" lon="6.27136">
        <ele>921.3</ele>
        <time>2016-09-18T11:45:32Z</time>
      </trkpt>
      <trkpt lat="43.81865" lon="6.27179">
        <ele>918.4</ele>
        <time>2016-09-18T11:45:38Z</time>
      </trkpt>
      <trkpt lat="43.81863" lon="6.27187">
        <ele>917.8</ele>
        <time>2016-09-18T11:45:39Z</time>
      </trkpt>
      <trkpt lat="43.81862" lon="6.27203">
        <ele>917</ele>
        <time>2016-09-18T11:45:41Z</time>
      </trkpt>
      <trkpt lat="43.8183" lon="6.27351">
        <ele>900.1</ele>
        <time>2016-09-18T11:45:56Z</time>
      </trkpt>
      <trkpt lat="43.8183" lon="6.27373">
        <ele>897.7</ele>
        <time>2016-09-18T11:45:59Z</time>
      </trkpt>
      <trkpt lat="43.81822" lon="6.2741">
        <ele>893.9</ele>
        <time>2016-09-18T11:46:05Z</time>
      </trkpt>
      <trkpt lat="43.81814" lon="6.27412">
        <ele>892.5</ele>
        <time>2016-09-18T11:46:07Z</time>
      </trkpt>
      <trkpt lat="43.81802" lon="6.27397">
        <ele>888.6</ele>
        <time>2016-09-18T11:46:11Z</time>
      </trkpt>
      <trkpt lat="43.81772" lon="6.27424">
        <ele>882.8</ele>
        <time>2016-09-18T11:46:21Z</time>
      </trkpt>
      <trkpt lat="43.81769" lon="6.27425">
        <ele>882.6</ele>
        <time>2016-09-18T11:46:30Z</time>
      </trkpt>
      <trkpt lat="43.818" lon="6.27395">
        <ele>882.5</ele>
        <time>2016-09-18T11:46:44Z</time>
      </trkpt>
      <trkpt lat="43.81808" lon="6.27406">
        <ele>883.1</ele>
        <time>2016-09-18T11:46:52Z</time>
      </trkpt>
      <trkpt lat="43.81804" lon="6.27397">
        <ele>883.6</ele>
        <time>2016-09-18T11:46:56Z</time>
      </trkpt>
      <trkpt lat="43.81795" lon="6.27411">
        <ele>883.4</ele>
        <time>2016-09-18T11:47:04Z</time>
      </trkpt>
      <trkpt lat="43.81823" lon="6.27451">
        <ele>880.3</ele>
        <time>2016-09-18T11:47:16Z</time>
      </trkpt>
      <trkpt lat="43.81868" lon="6.27455">
        <ele>876.1</ele>
        <time>2016-09-18T11:47:27Z</time>
      </trkpt>
      <trkpt lat="43.81914" lon="6.27423">
        <ele>872.4</ele>
        <time>2016-09-18T11:47:39Z</time>
      </trkpt>
      <trkpt lat="43.81958" lon="6.27363">
        <ele>867.7</ele>
        <time>2016-09-18T11:48:14Z</time>
      </trkpt>
      <trkpt lat="43.82038" lon="6.27386">
        <ele>864.4</ele>
        <time>2016-09-18T11:48:53Z</time>
      </trkpt>
      <trkpt lat="43.82086" lon="6.27362">
        <ele>868</ele>
        <time>2016-09-18T11:49:18Z</time>
      </trkpt>
      <trkpt lat="43.82116" lon="6.27334">
        <ele>871.3</ele>
        <time>2016-09-18T11:49:33Z</time>
      </trkpt>
      <trkpt lat="43.82203" lon="6.27239">
        <ele>867.7</ele>
        <time>2016-09-18T11:49:59Z</time>
      </trkpt>
      <trkpt lat="43.82229" lon="6.27218">
        <ele>864.9</ele>
        <time>2016-09-18T11:50:04Z</time>
      </trkpt>
      <trkpt lat="43.82268" lon="6.27207">
        <ele>863.2</ele>
        <time>2016-09-18T11:50:11Z</time>
      </trkpt>
      <trkpt lat="43.82311" lon="6.27156">
        <ele>864.1</ele>
        <time>2016-09-18T11:50:27Z</time>
      </trkpt>
      <trkpt lat="43.82332" lon="6.27152">
        <ele>864.1</ele>
        <time>2016-09-18T11:50:31Z</time>
      </trkpt>
      <trkpt lat="43.82467" lon="6.27113">
        <ele>858.2</ele>
        <time>2016-09-18T11:50:56Z</time>
      </trkpt>
      <trkpt lat="43.82486" lon="6.27073">
        <ele>861.7</ele>
        <time>2016-09-18T11:52:24Z</time>
      </trkpt>
      <trkpt lat="43.82578" lon="6.26916">
        <ele>863.7</ele>
        <time>2016-09-18T11:53:04Z</time>
      </trkpt>
      <trkpt lat="43.82589" lon="6.26907">
        <ele>863.7</ele>
        <time>2016-09-18T11:53:06Z</time>
      </trkpt>
      <trkpt lat="43.82687" lon="6.2684">
        <ele>867.1</ele>
        <time>2016-09-18T11:53:36Z</time>
      </trkpt>
      <trkpt lat="43.82736" lon="6.2686">
        <ele>872.2</ele>
        <time>2016-09-18T11:53:55Z</time>
      </trkpt>
      <trkpt lat="43.82766" lon="6.26801">
        <ele>876.4</ele>
        <time>2016-09-18T11:54:17Z</time>
      </trkpt>
      <trkpt lat="43.82813" lon="6.26793">
        <ele>882.7</ele>
        <time>2016-09-18T11:54:43Z</time>
      </trkpt>
      <trkpt lat="43.82819" lon="6.26741">
        <ele>886.2</ele>
        <time>2016-09-18T11:55:03Z</time>
      </trkpt>
      <trkpt lat="43.82847" lon="6.26705">
        <ele>888.3</ele>
        <time>2016-09-18T11:55:22Z</time>
      </trkpt>
      <trkpt lat="43.82841" lon="6.2661">
        <ele>894.1</ele>
        <time>2016-09-18T11:55:55Z</time>
      </trkpt>
      <trkpt lat="43.82852" lon="6.26563">
        <ele>896.5</ele>
        <time>2016-09-18T11:56:12Z</time>
      </trkpt>
      <trkpt lat="43.8288" lon="6.26515">
        <ele>899.3</ele>
        <time>2016-09-18T11:56:31Z</time>
      </trkpt>
      <trkpt lat="43.8294" lon="6.26453">
        <ele>897.8</ele>
        <time>2016-09-18T11:56:55Z</time>
      </trkpt>
      <trkpt lat="43.82988" lon="6.26349">
        <ele>899.1</ele>
        <time>2016-09-18T11:57:28Z</time>
      </trkpt>
      <trkpt lat="43.83028" lon="6.26318">
        <ele>900</ele>
        <time>2016-09-18T11:57:44Z</time>
      </trkpt>
      <trkpt lat="43.83081" lon="6.26343">
        <ele>897.7</ele>
        <time>2016-09-18T11:58:03Z</time>
      </trkpt>
      <trkpt lat="43.83124" lon="6.2632">
        <ele>898.1</ele>
        <time>2016-09-18T11:58:20Z</time>
      </trkpt>
      <trkpt lat="43.83131" lon="6.26322">
        <ele>897.8</ele>
        <time>2016-09-18T11:58:27Z</time>
      </trkpt>
      <trkpt lat="43.83148" lon="6.26321">
        <ele>897.8</ele>
        <time>2016-09-18T11:58:41Z</time>
      </trkpt>
      <trkpt lat="43.83213" lon="6.26277">
        <ele>894.5</ele>
        <time>2016-09-18T11:58:58Z</time>
      </trkpt>
      <trkpt lat="43.83442" lon="6.26113">
        <ele>886.7</ele>
        <time>2016-09-18T12:07:01Z</time>
      </trkpt>
      <trkpt lat="43.8381" lon="6.25835">
        <ele>910.8</ele>
        <time>2016-09-18T12:09:42Z</time>
      </trkpt>
      <trkpt lat="43.83892" lon="6.25759">
        <ele>916.7</ele>
        <time>2016-09-18T12:10:16Z</time>
      </trkpt>
      <trkpt lat="43.83955" lon="6.257">
        <ele>917.7</ele>
        <time>2016-09-18T12:10:39Z</time>
      </trkpt>
      <trkpt lat="43.84031" lon="6.25555">
        <ele>924.3</ele>
        <time>2016-09-18T12:11:25Z</time>
      </trkpt>
      <trkpt lat="43.8409" lon="6.25497">
        <ele>930.4</ele>
        <time>2016-09-18T12:11:52Z</time>
      </trkpt>
      <trkpt lat="43.84223" lon="6.25357">
        <ele>939.7</ele>
        <time>2016-09-18T12:12:53Z</time>
      </trkpt>
      <trkpt lat="43.84323" lon="6.25289">
        <ele>941.1</ele>
        <time>2016-09-18T12:13:29Z</time>
      </trkpt>
      <trkpt lat="43.84364" lon="6.25231">
        <ele>941.1</ele>
        <time>2016-09-18T12:13:46Z</time>
      </trkpt>
      <trkpt lat="43.84392" lon="6.25161">
        <ele>940.6</ele>
        <time>2016-09-18T12:14:04Z</time>
      </trkpt>
      <trkpt lat="43.84405" lon="6.25152">
        <ele>940.3</ele>
        <time>2016-09-18T12:14:07Z</time>
      </trkpt>
      <trkpt lat="43.84416" lon="6.25157">
        <ele>939.6</ele>
        <time>2016-09-18T12:14:09Z</time>
      </trkpt>
      <trkpt lat="43.84426" lon="6.25171">
        <ele>938.8</ele>
        <time>2016-09-18T12:14:11Z</time>
      </trkpt>
      <trkpt lat="43.8446" lon="6.25208">
        <ele>936.5</ele>
        <time>2016-09-18T12:14:17Z</time>
      </trkpt>
      <trkpt lat="43.84469" lon="6.25204">
        <ele>934.6</ele>
        <time>2016-09-18T12:14:19Z</time>
      </trkpt>
      <trkpt lat="43.84482" lon="6.25029">
        <ele>938.2</ele>
        <time>2016-09-18T12:15:01Z</time>
      </trkpt>
      <trkpt lat="43.84507" lon="6.24954">
        <ele>944.6</ele>
        <time>2016-09-18T12:15:25Z</time>
      </trkpt>
      <trkpt lat="43.8454" lon="6.24899">
        <ele>947</ele>
        <time>2016-09-18T12:15:44Z</time>
      </trkpt>
      <trkpt lat="43.84859" lon="6.24753">
        <ele>974.8</ele>
        <time>2016-09-18T12:17:47Z</time>
      </trkpt>
      <trkpt lat="43.84899" lon="6.24738">
        <ele>976.4</ele>
        <time>2016-09-18T12:18:05Z</time>
      </trkpt>
      <trkpt lat="43.84906" lon="6.24727">
        <ele>976.3</ele>
        <time>2016-09-18T12:18:25Z</time>
      </trkpt>
      <trkpt lat="43.84906" lon="6.24726">
        <ele>972.3</ele>
        <time>2016-09-18T12:18:30Z</time>
      </trkpt>
    </trkseg>
  </trk>
</gpx>